首页
METAR-TAF:

METAR-TAF

机场 :

Spangdahlem, 德国

纬度: 49-59N, 经度: 006-42E, 海拔: 365米

当前天气观测

该预报发布于52分钟前的03:11 UTC
风速4节,风向
温度 4°C
湿度 93%
气压 1000 hPa
能见度10公里或以上
散云层高于700英尺
阴天层高于1500英尺

METAR: ETAD 140311Z AUTO 09004KT 9999 SCT007 OVC015 04/03 A2952 RMK AO2 CIG 007V015 SLP999 $

时间: 05:03 (04:03 UTC)

预报

该预报发布于7小时和8分钟前的20:55 UTC
预报有效从13日的 21点(UTC)到 15日的 03点(UTC)
风速8节,风向
能见度10公里或以上
阴天层高于500英尺
短暂存在
从 13日的 21点(UTC)到 14日的 03点(UTC)
能見度: 9000
阴天层高于300英尺
小雨
成为
从 14日的 03点(UTC)到 14日的 04点(UTC)
风速12节,风向南转南东
能见度10公里或以上
阴天层高于700英尺
成为
从 14日的 06点(UTC)到 14日的 07点(UTC)
风速12节,风向东南,有时为18节阵风
能见度10公里或以上
散云层高于1000英尺
多云层高于1500英尺
短暂存在
从 14日的 07点(UTC)到 14日的 09点(UTC)
散云层高于1500英尺
成为
从 14日的 09点(UTC)到 14日的 10点(UTC)
风速12节,风向东南,有时为18节阵风
能见度10公里或以上
少量云层高于1500英尺
多云层高于2000英尺
成为
从 14日的 14点(UTC)到 14日的 15点(UTC)
风速8节,风向南转南东
能見度: 1405
多云层高于2000英尺

TAF: ETAD 132055Z 1321/1503 18008KT 9999 OVC005 620158 QNH2950INS TEMPO 1321/1403 9000 -RA OVC003 BECMG 1403/1404 16012KT 9999 OVC007 QNH2950INS BECMG 1406/1407 13012G18KT 9999 SCT010 BKN015 QNH2953INS TEMPO 1407/1409 SCT015 BECMG 1409/1410 14012G18KT 9999 FEW015 BKN020 QNH2953INS BECMG 1414/1415 15008KT 9999 BKN020 QNH2945INS TX04/1414Z TN02/1405Z LAST NO AMDS AFT 1321 NEXT 1405

超过4000个机场的气象观测和天气预报(METAR&TAF报告)。

可查询的气象台以黄色和红色小点在地图上表示。

将鼠标移到小点上方,可查看气象台名称。

然后点击查看天气观测和预报。

如需切换地图:点击带黑十字的绿色按钮放大地图;点击带横线的绿色按钮缩小地图;或者点击绿色箭头查看邻近地区的地图。


METAR-TAF: